sensor_id;sensor_type;location;lat;lon;timestamp;pressure;altitude;pressure_sealevel;temperature;humidity
9899;BME280;4988;49.238;6.698;2022-12-18T00:00:58;100190.50;;;-5.95;93.04
9899;BME280;4988;49.238;6.698;2022-12-18T00:03:24;100194.06;;;-5.93;93.14
9899;BME280;4988;49.238;6.698;2022-12-18T00:05:51;100187.91;;;-5.95;92.98
9899;BME280;4988;49.238;6.698;2022-12-18T00:08:18;100194.09;;;-5.91;92.75
9899;BME280;4988;49.238;6.698;2022-12-18T00:10:44;100190.81;;;-5.87;92.98
9899;BME280;4988;49.238;6.698;2022-12-18T00:13:12;100189.22;;;-5.84;93.03
9899;BME280;4988;49.238;6.698;2022-12-18T00:15:39;100185.69;;;-5.86;92.75
9899;BME280;4988;49.238;6.698;2022-12-18T00:18:05;100201.00;;;-5.92;92.60
9899;BME280;4988;49.238;6.698;2022-12-18T00:20:35;100205.81;;;-6.03;92.17
9899;BME280;4988;49.238;6.698;2022-12-18T00:23:02;100204.31;;;-5.96;92.47
9899;BME280;4988;49.238;6.698;2022-12-18T00:25:28;100208.75;;;-5.93;93.06
9899;BME280;4988;49.238;6.698;2022-12-18T00:27:54;100204.41;;;-5.93;93.41
9899;BME280;4988;49.238;6.698;2022-12-18T00:30:20;100205.44;;;-5.89;92.78
9899;BME280;4988;49.238;6.698;2022-12-18T00:32:46;100207.97;;;-5.91;92.91
9899;BME280;4988;49.238;6.698;2022-12-18T00:35:12;100200.59;;;-6.04;92.56
9899;BME280;4988;49.238;6.698;2022-12-18T00:37:38;100204.00;;;-6.05;92.72
9899;BME280;4988;49.238;6.698;2022-12-18T00:40:04;100205.31;;;-6.17;92.51
9899;BME280;4988;49.238;6.698;2022-12-18T00:42:30;100203.38;;;-5.98;93.51
9899;BME280;4988;49.238;6.698;2022-12-18T00:45:14;100200.97;;;-5.93;93.32
9899;BME280;4988;49.238;6.698;2022-12-18T00:47:40;100196.69;;;-5.91;93.30
9899;BME280;4988;49.238;6.698;2022-12-18T00:50:06;100209.75;;;-5.90;93.55
9899;BME280;4988;49.238;6.698;2022-12-18T00:52:33;100209.59;;;-5.93;93.23
9899;BME280;4988;49.238;6.698;2022-12-18T00:54:59;100195.94;;;-5.89;93.44
9899;BME280;4988;49.238;6.698;2022-12-18T00:57:25;100200.38;;;-5.86;93.50
9899;BME280;4988;49.238;6.698;2022-12-18T00:59:51;100200.47;;;-5.83;93.61
9899;BME280;4988;49.238;6.698;2022-12-18T01:02:16;100205.78;;;-5.80;93.73
9899;BME280;4988;49.238;6.698;2022-12-18T01:04:42;100206.84;;;-5.75;93.75
9899;BME280;4988;49.238;6.698;2022-12-18T01:07:07;100206.88;;;-5.73;93.68
9899;BME280;4988;49.238;6.698;2022-12-18T01:09:33;100213.84;;;-5.72;93.78
9899;BME280;4988;49.238;6.698;2022-12-18T01:12:00;100209.66;;;-5.69;93.28
9899;BME280;4988;49.238;6.698;2022-12-18T01:14:27;100212.28;;;-5.67;93.13
9899;BME280;4988;49.238;6.698;2022-12-18T01:16:54;100207.91;;;-5.68;93.60
9899;BME280;4988;49.238;6.698;2022-12-18T01:19:21;100208.06;;;-5.65;93.39
9899;BME280;4988;49.238;6.698;2022-12-18T01:21:47;100210.53;;;-5.68;93.10
9899;BME280;4988;49.238;6.698;2022-12-18T01:24:12;100212.19;;;-5.70;93.18
9899;BME280;4988;49.238;6.698;2022-12-18T01:26:38;100206.16;;;-5.69;93.12
9899;BME280;4988;49.238;6.698;2022-12-18T01:29:04;100210.41;;;-5.71;93.08
9899;BME280;4988;49.238;6.698;2022-12-18T01:31:32;100218.13;;;-5.73;93.03
9899;BME280;4988;49.238;6.698;2022-12-18T01:34:00;100215.47;;;-5.74;93.34
9899;BME280;4988;49.238;6.698;2022-12-18T01:36:33;100211.00;;;-5.78;92.67
9899;BME280;4988;49.238;6.698;2022-12-18T01:39:04;100207.47;;;-5.81;93.27
9899;BME280;4988;49.238;6.698;2022-12-18T01:41:32;100205.78;;;-5.80;93.02
9899;BME280;4988;49.238;6.698;2022-12-18T01:49:49;100212.19;;;-5.93;92.72
9899;BME280;4988;49.238;6.698;2022-12-18T01:52:15;100208.78;;;-5.92;93.03
9899;BME280;4988;49.238;6.698;2022-12-18T01:54:42;100204.31;;;-5.96;92.70
9899;BME280;4988;49.238;6.698;2022-12-18T01:57:08;100205.03;;;-6.00;92.65
9899;BME280;4988;49.238;6.698;2022-12-18T01:59:35;100203.34;;;-6.00;92.99
9899;BME280;4988;49.238;6.698;2022-12-18T02:02:02;100203.34;;;-6.00;93.29
9899;BME280;4988;49.238;6.698;2022-12-18T02:04:28;100212.00;;;-5.99;93.47
9899;BME280;4988;49.238;6.698;2022-12-18T02:09:35;100212.72;;;-6.03;93.40
9899;BME280;4988;49.238;6.698;2022-12-18T02:12:13;100218.59;;;-6.07;93.49
9899;BME280;4988;49.238;6.698;2022-12-18T02:17:26;100216.72;;;-6.11;93.81
9899;BME280;4988;49.238;6.698;2022-12-18T02:20:31;100215.13;;;-6.08;94.01
9899;BME280;4988;49.238;6.698;2022-12-18T02:27:58;100221.94;;;-6.10;93.44
9899;BME280;4988;49.238;6.698;2022-12-18T02:30:29;100234.28;;;-6.04;93.56
9899;BME280;4988;49.238;6.698;2022-12-18T02:32:57;100223.09;;;-6.03;93.69
9899;BME280;4988;49.238;6.698;2022-12-18T02:35:27;100219.44;;;-6.08;92.91
9899;BME280;4988;49.238;6.698;2022-12-18T02:37:55;100222.09;;;-6.07;92.54
9899;BME280;4988;49.238;6.698;2022-12-18T02:40:24;100210.81;;;-6.07;92.39
9899;BME280;4988;49.238;6.698;2022-12-18T02:42:51;100203.81;;;-6.10;92.48
9899;BME280;4988;49.238;6.698;2022-12-18T02:45:18;100203.03;;;-6.07;92.52
9899;BME280;4988;49.238;6.698;2022-12-18T02:47:45;100198.72;;;-6.08;92.78
9899;BME280;4988;49.238;6.698;2022-12-18T02:50:27;100196.94;;;-6.09;92.16
9899;BME280;4988;49.238;6.698;2022-12-18T02:53:06;100197.72;;;-6.12;91.77
9899;BME280;4988;49.238;6.698;2022-12-18T02:55:58;100196.56;;;-6.19;91.85
9899;BME280;4988;49.238;6.698;2022-12-18T02:58:52;100202.56;;;-6.20;92.22
9899;BME280;4988;49.238;6.698;2022-12-18T03:01:36;100204.25;;;-6.22;92.15
9899;BME280;4988;49.238;6.698;2022-12-18T03:04:09;100220.59;;;-6.23;92.41
9899;BME280;4988;49.238;6.698;2022-12-18T03:06:43;100209.47;;;-6.20;92.18
9899;BME280;4988;49.238;6.698;2022-12-18T03:09:14;100221.56;;;-6.21;92.22
9899;BME280;4988;49.238;6.698;2022-12-18T03:11:45;100228.25;;;-6.26;91.18
9899;BME280;4988;49.238;6.698;2022-12-18T03:14:33;100229.19;;;-6.24;91.31
9899;BME280;4988;49.238;6.698;2022-12-18T03:17:05;100226.59;;;-6.24;91.57
9899;BME280;4988;49.238;6.698;2022-12-18T03:19:34;100234.38;;;-6.24;91.36
9899;BME280;4988;49.238;6.698;2022-12-18T03:22:02;100234.34;;;-6.25;91.54
9899;BME280;4988;49.238;6.698;2022-12-18T03:24:31;100239.44;;;-6.27;91.53
9899;BME280;4988;49.238;6.698;2022-12-18T03:27:06;100234.19;;;-6.28;91.52
9899;BME280;4988;49.238;6.698;2022-12-18T03:30:04;100227.31;;;-6.28;91.21
9899;BME280;4988;49.238;6.698;2022-12-18T03:33:01;100233.28;;;-6.31;91.02
9899;BME280;4988;49.238;6.698;2022-12-18T03:35:31;100236.69;;;-6.32;91.41
9899;BME280;4988;49.238;6.698;2022-12-18T03:37:58;100241.03;;;-6.31;91.29
9899;BME280;4988;49.238;6.698;2022-12-18T03:40:31;100236.69;;;-6.32;91.10
9899;BME280;4988;49.238;6.698;2022-12-18T03:43:10;100239.09;;;-6.36;91.14
9899;BME280;4988;49.238;6.698;2022-12-18T03:45:51;100226.84;;;-6.40;91.17
9899;BME280;4988;49.238;6.698;2022-12-18T03:48:31;100230.25;;;-6.41;90.94
9899;BME280;4988;49.238;6.698;2022-12-18T03:51:02;100230.00;;;-6.48;90.64
9899;BME280;4988;49.238;6.698;2022-12-18T03:53:41;100225.09;;;-6.63;90.55
9899;BME280;4988;49.238;6.698;2022-12-18T03:56:11;100220.78;;;-6.62;90.50
9899;BME280;4988;49.238;6.698;2022-12-18T03:58:38;100222.41;;;-6.64;90.84
9899;BME280;4988;49.238;6.698;2022-12-18T04:01:06;100225.97;;;-6.62;91.33
9899;BME280;4988;49.238;6.698;2022-12-18T04:03:34;100225.09;;;-6.63;91.13
9899;BME280;4988;49.238;6.698;2022-12-18T04:06:01;100214.59;;;-6.66;91.38
9899;BME280;4988;49.238;6.698;2022-12-18T04:08:28;100216.38;;;-6.65;90.73
9899;BME280;4988;49.238;6.698;2022-12-18T04:10:54;100218.66;;;-6.72;91.11
9899;BME280;4988;49.238;6.698;2022-12-18T04:13:38;100210.94;;;-6.71;90.39
9899;BME280;4988;49.238;6.698;2022-12-18T04:16:03;100217.75;;;-6.73;91.02
9899;BME280;4988;49.238;6.698;2022-12-18T04:18:29;100211.66;;;-6.75;91.44
9899;BME280;4988;49.238;6.698;2022-12-18T04:20:55;100217.66;;;-6.76;91.02
9899;BME280;4988;49.238;6.698;2022-12-18T04:23:20;100213.59;;;-6.69;91.00
9899;BME280;4988;49.238;6.698;2022-12-18T04:25:46;100214.41;;;-6.70;89.87
9899;BME280;4988;49.238;6.698;2022-12-18T04:28:12;100209.31;;;-6.69;89.82
9899;BME280;4988;49.238;6.698;2022-12-18T04:30:37;100211.00;;;-6.69;90.01
9899;BME280;4988;49.238;6.698;2022-12-18T04:33:02;100214.28;;;-6.73;90.01
9899;BME280;4988;49.238;6.698;2022-12-18T04:35:28;100219.41;;;-6.75;90.60
9899;BME280;4988;49.238;6.698;2022-12-18T04:37:53;100214.97;;;-6.78;90.34
9899;BME280;4988;49.238;6.698;2022-12-18T04:40:18;100219.97;;;-6.82;89.89
9899;BME280;4988;49.238;6.698;2022-12-18T04:42:44;100223.44;;;-6.82;90.49
9899;BME280;4988;49.238;6.698;2022-12-18T04:45:09;100221.00;;;-6.79;90.20
9899;BME280;4988;49.238;6.698;2022-12-18T04:47:35;100222.38;;;-6.87;90.14
9899;BME280;4988;49.238;6.698;2022-12-18T04:50:00;100226.53;;;-6.90;90.60
9899;BME280;4988;49.238;6.698;2022-12-18T04:52:26;100229.19;;;-6.89;90.42
9899;BME280;4988;49.238;6.698;2022-12-18T04:54:51;100229.19;;;-6.89;90.47
9899;BME280;4988;49.238;6.698;2022-12-18T04:57:16;100227.09;;;-6.98;89.97
9899;BME280;4988;49.238;6.698;2022-12-18T04:59:43;100234.16;;;-6.93;90.08
9899;BME280;4988;49.238;6.698;2022-12-18T05:02:08;100242.69;;;-6.96;90.22
9899;BME280;4988;49.238;6.698;2022-12-18T05:04:34;100247.19;;;-6.92;90.28
9899;BME280;4988;49.238;6.698;2022-12-18T05:06:59;100243.63;;;-6.94;90.28
9899;BME280;4988;49.238;6.698;2022-12-18T05:09:24;100250.59;;;-6.93;90.25
9899;BME280;4988;49.238;6.698;2022-12-18T05:11:50;100248.81;;;-6.94;90.65
9899;BME280;4988;49.238;6.698;2022-12-18T05:14:15;100249.56;;;-6.97;90.34
9899;BME280;4988;49.238;6.698;2022-12-18T05:16:40;100252.09;;;-6.98;90.04
9899;BME280;4988;49.238;6.698;2022-12-18T05:19:06;100252.09;;;-6.98;89.78
9899;BME280;4988;49.238;6.698;2022-12-18T05:21:31;100255.34;;;-7.02;90.50
9899;BME280;4988;49.238;6.698;2022-12-18T05:23:56;100261.28;;;-7.05;90.85
9899;BME280;4988;49.238;6.698;2022-12-18T05:26:22;100266.66;;;-7.00;90.36
9899;BME280;4988;49.238;6.698;2022-12-18T05:28:47;100263.94;;;-7.03;90.23
9899;BME280;4988;49.238;6.698;2022-12-18T05:31:13;100257.94;;;-7.02;90.17
9899;BME280;4988;49.238;6.698;2022-12-18T05:33:38;100260.41;;;-7.05;90.24
9899;BME280;4988;49.238;6.698;2022-12-18T05:36:06;100270.50;;;-7.12;90.00
9899;BME280;4988;49.238;6.698;2022-12-18T05:38:34;100275.41;;;-7.18;89.80
9899;BME280;4988;49.238;6.698;2022-12-18T05:40:59;100275.25;;;-7.21;90.59
9899;BME280;4988;49.238;6.698;2022-12-18T05:43:25;100274.38;;;-7.21;90.29
9899;BME280;4988;49.238;6.698;2022-12-18T05:45:51;100280.44;;;-7.21;90.10
9899;BME280;4988;49.238;6.698;2022-12-18T05:48:18;100282.63;;;-7.30;90.19
9899;BME280;4988;49.238;6.698;2022-12-18T05:50:44;100285.34;;;-7.27;89.88
9899;BME280;4988;49.238;6.698;2022-12-18T05:53:11;100287.59;;;-7.35;89.87
9899;BME280;4988;49.238;6.698;2022-12-18T05:55:38;100284.03;;;-7.37;90.04
9899;BME280;4988;49.238;6.698;2022-12-18T05:58:05;100280.66;;;-7.36;90.39
9899;BME280;4988;49.238;6.698;2022-12-18T06:00:32;100290.88;;;-7.39;90.72
9899;BME280;4988;49.238;6.698;2022-12-18T06:02:57;100291.41;;;-7.46;90.58
9899;BME280;4988;49.238;6.698;2022-12-18T06:05:23;100289.63;;;-7.47;90.67
9899;BME280;4988;49.238;6.698;2022-12-18T06:07:48;100286.28;;;-7.45;90.81
9899;BME280;4988;49.238;6.698;2022-12-18T06:10:14;100279.34;;;-7.46;90.85
9899;BME280;4988;49.238;6.698;2022-12-18T06:12:39;100272.56;;;-7.44;90.38
9899;BME280;4988;49.238;6.698;2022-12-18T06:15:05;100277.56;;;-7.47;90.96
9899;BME280;4988;49.238;6.698;2022-12-18T06:17:31;100279.63;;;-7.39;91.68
9899;BME280;4988;49.238;6.698;2022-12-18T06:19:57;100281.34;;;-7.40;91.05
9899;BME280;4988;49.238;6.698;2022-12-18T06:22:22;100287.09;;;-7.46;91.06
9899;BME280;4988;49.238;6.698;2022-12-18T06:24:47;100284.59;;;-7.44;90.72
9899;BME280;4988;49.238;6.698;2022-12-18T06:27:13;100286.78;;;-7.53;91.07
9899;BME280;4988;49.238;6.698;2022-12-18T06:29:39;100286.84;;;-7.52;91.86
9899;BME280;4988;49.238;6.698;2022-12-18T06:32:04;100292.81;;;-7.53;91.16
9899;BME280;4988;49.238;6.698;2022-12-18T06:34:31;100293.63;;;-7.54;91.51
9899;BME280;4988;49.238;6.698;2022-12-18T06:36:57;100292.81;;;-7.53;91.41
9899;BME280;4988;49.238;6.698;2022-12-18T06:39:23;100298.78;;;-7.54;91.17
9899;BME280;4988;49.238;6.698;2022-12-18T06:41:48;100304.81;;;-7.55;91.63
9899;BME280;4988;49.238;6.698;2022-12-18T06:44:13;100314.94;;;-7.60;91.47
9899;BME280;4988;49.238;6.698;2022-12-18T06:46:38;100313.09;;;-7.62;91.41
9899;BME280;4988;49.238;6.698;2022-12-18T06:49:04;100320.63;;;-7.67;91.50
9899;BME280;4988;49.238;6.698;2022-12-18T06:51:29;100326.47;;;-7.71;91.88
9899;BME280;4988;49.238;6.698;2022-12-18T06:53:55;100328.03;;;-7.74;92.02
9899;BME280;4988;49.238;6.698;2022-12-18T06:56:20;100333.03;;;-7.78;91.98
9899;BME280;4988;49.238;6.698;2022-12-18T06:58:46;100341.38;;;-7.65;91.80
9899;BME280;4988;49.238;6.698;2022-12-18T07:01:11;100344.94;;;-7.63;90.28
9899;BME280;4988;49.238;6.698;2022-12-18T07:03:41;100352.41;;;-7.69;88.48
9899;BME280;4988;49.238;6.698;2022-12-18T07:06:16;100344.13;;;-7.80;88.08
9899;BME280;4988;49.238;6.698;2022-12-18T07:08:42;100348.88;;;-7.89;86.93
9899;BME280;4988;49.238;6.698;2022-12-18T07:11:07;100354.69;;;-7.94;86.95
9899;BME280;4988;49.238;6.698;2022-12-18T07:13:32;100346.66;;;-8.00;86.73
9899;BME280;4988;49.238;6.698;2022-12-18T07:16:24;100341.75;;;-8.12;86.20
9899;BME280;4988;49.238;6.698;2022-12-18T07:18:49;100349.44;;;-8.13;87.00
9899;BME280;4988;49.238;6.698;2022-12-18T07:21:18;100349.38;;;-8.15;87.56
9899;BME280;4988;49.238;6.698;2022-12-18T07:23:44;100337.34;;;-8.14;88.30
9899;BME280;4988;49.238;6.698;2022-12-18T07:26:13;100342.09;;;-8.05;87.27
9899;BME280;4988;49.238;6.698;2022-12-18T07:28:41;100349.38;;;-8.15;87.48
9899;BME280;4988;49.238;6.698;2022-12-18T07:31:12;100356.38;;;-8.12;87.42
9899;BME280;4988;49.238;6.698;2022-12-18T07:33:38;100356.38;;;-8.12;87.31
9899;BME280;4988;49.238;6.698;2022-12-18T07:36:04;100366.88;;;-8.09;88.31
9899;BME280;4988;49.238;6.698;2022-12-18T07:38:31;100364.44;;;-8.06;88.63
9899;BME280;4988;49.238;6.698;2022-12-18T07:41:04;100357.72;;;-8.02;88.63
9899;BME280;4988;49.238;6.698;2022-12-18T07:43:31;100351.59;;;-8.04;89.67
9899;BME280;4988;49.238;6.698;2022-12-18T07:45:56;100344.22;;;-7.97;91.03
9899;BME280;4988;49.238;6.698;2022-12-18T07:48:21;100339.41;;;-7.89;91.32
9899;BME280;4988;49.238;6.698;2022-12-18T07:50:46;100344.06;;;-7.82;91.84
9899;BME280;4988;49.238;6.698;2022-12-18T07:53:12;100355.66;;;-7.73;92.61
9899;BME280;4988;49.238;6.698;2022-12-18T07:55:37;100359.47;;;-7.65;92.22
9899;BME280;4988;49.238;6.698;2022-12-18T07:58:04;100352.00;;;-7.59;92.43
9899;BME280;4988;49.238;6.698;2022-12-18T08:00:30;100352.81;;;-7.60;92.14
9899;BME280;4988;49.238;6.698;2022-12-18T08:02:56;100353.31;;;-7.49;91.76
9899;BME280;4988;49.238;6.698;2022-12-18T08:05:25;100363.28;;;-7.39;92.28
9899;BME280;4988;49.238;6.698;2022-12-18T08:07:51;100359.13;;;-7.35;91.95
9899;BME280;4988;49.238;6.698;2022-12-18T08:10:17;100347.28;;;-7.30;92.05
9899;BME280;4988;49.238;6.698;2022-12-18T08:12:42;100342.25;;;-7.27;91.90
9899;BME280;4988;49.238;6.698;2022-12-18T08:15:08;100340.84;;;-7.20;91.63
9899;BME280;4988;49.238;6.698;2022-12-18T08:17:34;100343.59;;;-7.16;92.20
9899;BME280;4988;49.238;6.698;2022-12-18T08:20:00;100359.41;;;-7.09;93.44
9899;BME280;4988;49.238;6.698;2022-12-18T08:22:25;100355.19;;;-7.07;93.49
9899;BME280;4988;49.238;6.698;2022-12-18T08:24:51;100352.06;;;-7.00;94.26
9899;BME280;4988;49.238;6.698;2022-12-18T08:27:17;100348.78;;;-6.96;94.55
9899;BME280;4988;49.238;6.698;2022-12-18T08:29:42;100341.16;;;-6.93;94.44
9899;BME280;4988;49.238;6.698;2022-12-18T08:32:07;100342.03;;;-6.92;94.58
9899;BME280;4988;49.238;6.698;2022-12-18T08:34:33;100335.03;;;-6.95;94.18
9899;BME280;4988;49.238;6.698;2022-12-18T08:36:59;100326.44;;;-6.94;94.28
9899;BME280;4988;49.238;6.698;2022-12-18T08:39:24;100332.66;;;-6.90;94.53
9899;BME280;4988;49.238;6.698;2022-12-18T08:41:50;100331.91;;;-6.88;95.32
9899;BME280;4988;49.238;6.698;2022-12-18T08:44:33;100348.38;;;-6.86;94.41
9899;BME280;4988;49.238;6.698;2022-12-18T08:47:06;100350.06;;;-6.86;94.80
9899;BME280;4988;49.238;6.698;2022-12-18T08:49:33;100347.69;;;-6.82;95.07
9899;BME280;4988;49.238;6.698;2022-12-18T08:51:59;100350.44;;;-6.79;94.87
9899;BME280;4988;49.238;6.698;2022-12-18T08:54:24;100348.16;;;-6.71;95.85
9899;BME280;4988;49.238;6.698;2022-12-18T08:56:50;100351.72;;;-6.69;95.12
9899;BME280;4988;49.238;6.698;2022-12-18T08:59:17;100353.44;;;-6.68;94.80
9899;BME280;4988;49.238;6.698;2022-12-18T09:01:42;100354.56;;;-6.63;95.23
9899;BME280;4988;49.238;6.698;2022-12-18T09:04:12;100350.09;;;-6.65;95.39
9899;BME280;4988;49.238;6.698;2022-12-18T09:06:39;100360.75;;;-6.59;95.45
9899;BME280;4988;49.238;6.698;2022-12-18T09:09:04;100364.78;;;-6.66;95.75
9899;BME280;4988;49.238;6.698;2022-12-18T09:11:31;100369.94;;;-6.66;95.58
9899;BME280;4988;49.238;6.698;2022-12-18T09:13:58;100357.31;;;-6.58;95.90
9899;BME280;4988;49.238;6.698;2022-12-18T09:16:25;100360.13;;;-6.53;95.81
9899;BME280;4988;49.238;6.698;2022-12-18T09:18:51;100364.28;;;-6.57;96.29
9899;BME280;4988;49.238;6.698;2022-12-18T09:21:22;100367.06;;;-6.52;96.64
9899;BME280;4988;49.238;6.698;2022-12-18T09:23:51;100357.63;;;-6.71;97.06
9899;BME280;4988;49.238;6.698;2022-12-18T09:26:16;100357.16;;;-6.63;97.35
9899;BME280;4988;49.238;6.698;2022-12-18T09:28:42;100346.16;;;-6.57;97.28
9899;BME280;4988;49.238;6.698;2022-12-18T09:31:08;100341.16;;;-6.52;98.32
9899;BME280;4988;49.238;6.698;2022-12-18T09:33:36;100345.38;;;-6.54;98.40
9899;BME280;4988;49.238;6.698;2022-12-18T09:36:06;100343.75;;;-6.52;98.77
9899;BME280;4988;49.238;6.698;2022-12-18T09:38:33;100348.44;;;-6.43;98.86
9899;BME280;4988;49.238;6.698;2022-12-18T09:43:46;100353.31;;;-6.30;99.55
9899;BME280;4988;49.238;6.698;2022-12-18T09:46:19;100352.75;;;-6.23;99.55
9899;BME280;4988;49.238;6.698;2022-12-18T09:48:49;100358.28;;;-6.14;99.43
9899;BME280;4988;49.238;6.698;2022-12-18T09:51:46;100357.31;;;-5.94;98.92
9899;BME280;4988;49.238;6.698;2022-12-18T09:54:17;100346.44;;;-5.86;98.71
9899;BME280;4988;49.238;6.698;2022-12-18T09:56:44;100349.06;;;-5.84;97.97
9899;BME280;4988;49.238;6.698;2022-12-18T09:59:37;100349.44;;;-5.75;97.61
9899;BME280;4988;49.238;6.698;2022-12-18T10:02:17;100348.44;;;-5.78;97.03
9899;BME280;4988;49.238;6.698;2022-12-18T10:04:45;100343.31;;;-5.77;97.74
9899;BME280;4988;49.238;6.698;2022-12-18T10:07:19;100345.31;;;-5.70;97.53
9899;BME280;4988;49.238;6.698;2022-12-18T10:12:38;100337.72;;;-5.65;96.98
9899;BME280;4988;49.238;6.698;2022-12-18T10:20:48;100316.06;;;-5.66;97.36
9899;BME280;4988;49.238;6.698;2022-12-18T10:26:24;100320.13;;;-5.50;96.86
9899;BME280;4988;49.238;6.698;2022-12-18T10:28:51;100321.03;;;-5.49;97.07
9899;BME280;4988;49.238;6.698;2022-12-18T10:31:20;100313.06;;;-5.54;96.48
9899;BME280;4988;49.238;6.698;2022-12-18T10:33:46;100307.66;;;-5.60;96.93
9899;BME280;4988;49.238;6.698;2022-12-18T10:36:12;100312.94;;;-5.57;96.93
9899;BME280;4988;49.238;6.698;2022-12-18T10:38:37;100304.53;;;-5.51;97.18
9899;BME280;4988;49.238;6.698;2022-12-18T10:41:04;100298.69;;;-5.45;96.75
9899;BME280;4988;49.238;6.698;2022-12-18T10:43:31;100294.56;;;-5.40;97.10
9899;BME280;4988;49.238;6.698;2022-12-18T10:53:59;100287.63;;;-5.40;96.27
9899;BME280;4988;49.238;6.698;2022-12-18T10:56:26;100282.63;;;-5.35;96.49
9899;BME280;4988;49.238;6.698;2022-12-18T10:59:03;100281.63;;;-5.39;96.03
9899;BME280;4988;49.238;6.698;2022-12-18T11:01:57;100271.16;;;-5.42;96.37
9899;BME280;4988;49.238;6.698;2022-12-18T11:04:28;100279.97;;;-5.37;96.66
9899;BME280;4988;49.238;6.698;2022-12-18T11:07:07;100275.66;;;-5.36;96.41
9899;BME280;4988;49.238;6.698;2022-12-18T11:09:36;100272.41;;;-5.30;96.91
9899;BME280;4988;49.238;6.698;2022-12-18T11:12:06;100262.34;;;-5.21;97.02
9899;BME280;4988;49.238;6.698;2022-12-18T11:14:48;100254.66;;;-5.20;96.30
9899;BME280;4988;49.238;6.698;2022-12-18T11:19:56;100255.47;;;-5.45;96.89
9899;BME280;4988;49.238;6.698;2022-12-18T11:22:27;100249.28;;;-5.49;97.48
9899;BME280;4988;49.238;6.698;2022-12-18T11:24:56;100245.31;;;-5.39;97.77
9899;BME280;4988;49.238;6.698;2022-12-18T11:27:22;100246.31;;;-5.35;97.98
9899;BME280;4988;49.238;6.698;2022-12-18T11:29:50;100244.53;;;-5.36;98.17
9899;BME280;4988;49.238;6.698;2022-12-18T11:32:27;100245.31;;;-5.39;98.21
9899;BME280;4988;49.238;6.698;2022-12-18T11:35:03;100240.28;;;-5.34;98.00
9899;BME280;4988;49.238;6.698;2022-12-18T11:37:31;100229.31;;;-5.27;98.45
9899;BME280;4988;49.238;6.698;2022-12-18T11:40:12;100238.72;;;-5.29;98.60
9899;BME280;4988;49.238;6.698;2022-12-18T11:43:20;100234.50;;;-5.27;98.91
9899;BME280;4988;49.238;6.698;2022-12-18T11:45:52;100232.19;;;-5.18;98.78
9899;BME280;4988;49.238;6.698;2022-12-18T11:48:30;100225.91;;;-5.00;98.99
9899;BME280;4988;49.238;6.698;2022-12-18T11:51:00;100215.78;;;-4.92;98.18
9899;BME280;4988;49.238;6.698;2022-12-18T11:53:29;100221.00;;;-4.91;97.63
9899;BME280;4988;49.238;6.698;2022-12-18T12:01:50;100232.22;;;-4.92;97.74
9899;BME280;4988;49.238;6.698;2022-12-18T12:04:27;100229.16;;;-4.80;98.12
9899;BME280;4988;49.238;6.698;2022-12-18T12:21:53;100195.41;;;-4.80;97.82
9899;BME280;4988;49.238;6.698;2022-12-18T12:29:56;100210.41;;;-4.71;97.77
9899;BME280;4988;49.238;6.698;2022-12-18T12:37:52;100193.44;;;-4.60;97.15
9899;BME280;4988;49.238;6.698;2022-12-18T12:40:25;100179.63;;;-4.59;96.20
9899;BME280;4988;49.238;6.698;2022-12-18T12:43:02;100188.81;;;-4.70;96.87
9899;BME280;4988;49.238;6.698;2022-12-18T12:46:12;100189.75;;;-4.68;96.21
9899;BME280;4988;49.238;6.698;2022-12-18T12:51:21;100183.69;;;-4.67;96.93
9899;BME280;4988;49.238;6.698;2022-12-18T12:53:51;100181.25;;;-4.62;96.74
9899;BME280;4988;49.238;6.698;2022-12-18T12:56:37;100174.34;;;-4.62;96.23
9899;BME280;4988;49.238;6.698;2022-12-18T13:02:51;100162.56;;;-4.50;96.53
9899;BME280;4988;49.238;6.698;2022-12-18T13:05:38;100166.16;;;-4.47;96.64
9899;BME280;4988;49.238;6.698;2022-12-18T13:08:09;100158.63;;;-4.38;96.99
9899;BME280;4988;49.238;6.698;2022-12-18T13:10:37;100151.00;;;-4.31;96.81
9899;BME280;4988;49.238;6.698;2022-12-18T13:13:08;100149.41;;;-4.28;95.53
9899;BME280;4988;49.238;6.698;2022-12-18T13:20:49;100145.50;;;-4.13;95.26
9899;BME280;4988;49.238;6.698;2022-12-18T13:25:45;100138.56;;;-4.13;95.42
9899;BME280;4988;49.238;6.698;2022-12-18T13:28:22;100142.22;;;-4.08;94.97
9899;BME280;4988;49.238;6.698;2022-12-18T13:30:55;100147.34;;;-4.09;94.99
9899;BME280;4988;49.238;6.698;2022-12-18T13:33:37;100141.41;;;-4.05;94.72
9899;BME280;4988;49.238;6.698;2022-12-18T13:38:47;100142.47;;;-3.98;94.99
9899;BME280;4988;49.238;6.698;2022-12-18T13:43:46;100143.31;;;-3.98;95.73
9899;BME280;4988;49.238;6.698;2022-12-18T13:51:23;100140.59;;;-3.72;95.21
9899;BME280;4988;49.238;6.698;2022-12-18T13:53:50;100127.75;;;-3.66;94.32
9899;BME280;4988;49.238;6.698;2022-12-18T13:56:24;100138.28;;;-3.61;94.14
9899;BME280;4988;49.238;6.698;2022-12-18T14:01:34;100120.63;;;-3.41;93.48
9899;BME280;4988;49.238;6.698;2022-12-18T14:06:50;100119.06;;;-3.34;93.01
9899;BME280;4988;49.238;6.698;2022-12-18T14:09:29;100112.25;;;-3.28;92.79
9899;BME280;4988;49.238;6.698;2022-12-18T14:11:56;100119.31;;;-3.25;92.02
9899;BME280;4988;49.238;6.698;2022-12-18T14:14:47;100119.03;;;-3.36;92.66
9899;BME280;4988;49.238;6.698;2022-12-18T14:17:14;100132.22;;;-3.28;93.11
9899;BME280;4988;49.238;6.698;2022-12-18T14:19:50;100123.59;;;-3.26;92.10
9899;BME280;4988;49.238;6.698;2022-12-18T14:22:23;100125.28;;;-3.28;92.80
9899;BME280;4988;49.238;6.698;2022-12-18T14:25:27;100125.25;;;-3.29;92.96
9899;BME280;4988;49.238;6.698;2022-12-18T14:28:08;100127.88;;;-3.28;92.90
9899;BME280;4988;49.238;6.698;2022-12-18T14:30:45;100119.41;;;-3.20;93.21
9899;BME280;4988;49.238;6.698;2022-12-18T14:33:22;100129.78;;;-3.22;92.32
9899;BME280;4988;49.238;6.698;2022-12-18T14:36:13;100132.34;;;-3.24;92.40
9899;BME280;4988;49.238;6.698;2022-12-18T14:38:41;100134.16;;;-3.21;92.52
9899;BME280;4988;49.238;6.698;2022-12-18T14:41:14;100133.44;;;-3.15;92.34
9899;BME280;4988;49.238;6.698;2022-12-18T14:43:43;100134.22;;;-3.18;92.21
9899;BME280;4988;49.238;6.698;2022-12-18T14:46:34;100138.66;;;-3.15;91.72
9899;BME280;4988;49.238;6.698;2022-12-18T14:49:02;100142.09;;;-3.16;92.33
9899;BME280;4988;49.238;6.698;2022-12-18T14:51:33;100143.75;;;-3.18;91.96
9899;BME280;4988;49.238;6.698;2022-12-18T14:54:05;100137.63;;;-3.20;92.10
9899;BME280;4988;49.238;6.698;2022-12-18T14:56:48;100142.00;;;-3.19;92.66
9899;BME280;4988;49.238;6.698;2022-12-18T14:59:21;100134.22;;;-3.18;92.64
9899;BME280;4988;49.238;6.698;2022-12-18T15:07:17;100148.97;;;-3.18;93.08
9899;BME280;4988;49.238;6.698;2022-12-18T15:09:44;100146.38;;;-3.18;92.52
9899;BME280;4988;49.238;6.698;2022-12-18T15:12:35;100149.06;;;-3.15;92.97